Terminal Aerodrome Forecast
Issued by NWS Chicago, IL

Home | Current Version | Previous Version | Graphics & Text | Print | Product List | Glossary On
Versions: 1 2 3 4 5 6 7 8 9 10 11 12 13 14 15 16 17 18 19 20 21 22 23 24
000
FTUS43 KLOT 211722
TAFRFD
TAF
KRFD 211722Z 2118/2218 10008KT 5SM -SHRA BR OVC006
     FM212000 10012KT 5SM BR VCSH OVC008
     FM220200 08010KT 4SM BR BKN008
     FM220500 34005KT 2SM BR SCT003 OVC004
     FM221500 33007KT P6SM BKN018=

USA.gov is the U.S. government's official web portal to all federal, state and local government web resources and services.